Latest Coastal Weather Observations for Green Cape

IDN60701

Issued at 2:32 am EDT Sunday 7 February 2016 (issued every 10 minutes, with the page automatically refreshed every 10 minutes)

About coastal observations | Map of coastal stations | Coastal observations for NSW | Marine services | Other Formats
Station Details ID: 069137 Name: GREEN CAPE AWS Lat: -37.26 Lon: 150.05 Height: 19.4 m
Data from the previous 72 hours. | See also: Recent months at Green Cape
Date/Time
EDT
Temp

°C
Wind Pressure Rain
since 9am
mm
Weather Cloud Vis
km
Sea
Height
m
Swell
Dir
 
Speed
knots
Gust
knots
hPa Trend Height
m
Period
s
Dir
07/02:30am 20.5 NNE 13 16 1017.4 - 0.0 - - - - - - -
07/02:00am 20.8 NNE 11 13 1017.7 - 0.0 - - - - - - -
07/01:30am 20.9 NNE 13 16 1018.1 - 0.0 - - - - - - -
07/01:00am 21.0 NNE 14 17 1018.3 - 0.0 - - - - - - -
07/12:30am 20.9 NNE 13 17 1018.4 - 0.0 - - - - - - -
07/12:00am 21.0 NNE 15 18 1018.5 - 0.0 - - - - - - -
 
Date/Time
EDT
Temp

°C
Wind Pressure Rain
since 9am
mm
Weather Cloud Vis
km
Sea
Height
m
Swell
Dir
 
Speed
knots
Gust
knots
hPa Trend Height
m
Period
s
Dir
06/11:30pm 21.0 NNE 15 18 1018.6 - 0.0 - - - - - - -
06/11:00pm 20.9 NNE 13 16 1018.9 - 0.0 - - - - - - -
06/10:30pm 21.1 NNE 13 16 1019.1 - 0.0 - - - - - - -
06/10:00pm 21.0 NNE 14 17 1018.9 - 0.0 - - - - - - -
06/09:30pm 21.0 NNE 14 17 1018.7 - 0.0 - - - - - - -
06/09:00pm 21.1 NNE 13 15 1018.6 - 0.0 - - - - - - -
06/08:30pm 20.9 NNE 12 15 1018.4 - 0.0 - - - - - - -
06/08:00pm 21.3 NNE 12 14 1018.2 - 0.0 - - - - - - -
06/07:30pm 21.4 NE 14 17 1017.9 - 0.0 - - - - - - -
06/07:00pm 21.6 NE 12 14 1018.0 - 0.0 - - - - - - -
06/06:30pm 21.7 NE 11 13 1018.1 - 0.0 - - - - - - -
06/06:00pm 22.1 NE 11 13 1018.0 - 0.0 - - - - - - -
06/05:30pm 22.1 NE 12 14 1017.9 - 0.0 - - - - - - -
06/05:00pm 22.1 NE 12 14 1018.0 - 0.0 - - - - - - -
06/04:30pm 22.6 NE 12 15 1018.1 - 0.0 - - - - - - -
06/04:00pm 22.6 NE 13 16 1018.2 - 0.0 - - - - - - -
06/03:30pm 23.3 ENE 13 16 1018.3 - 0.0 - - - - - - -
06/03:00pm 23.2 NE 13 15 1018.6 - 0.0 - - - - - - -
06/02:30pm 25.6 NE 9 12 1018.8 - 0.0 - - - - - - -
06/02:00pm 25.8 NE 10 12 1019.1 - 0.0 - - - - - - -
06/01:30pm 25.4 NE 9 11 1019.3 - 0.0 - - - - - - -
06/01:00pm 25.6 NE 10 12 1019.6 - 0.0 - - - - - - -
06/12:30pm 25.8 NNE 9 10 1019.9 - 0.0 - - - - - - -
06/12:00pm 25.8 NNE 8 10 1020.1 - 0.0 - - - - - - -
06/11:30am 23.7 NNE 9 11 1020.2 - 0.0 - - - - - - -
06/11:00am 21.9 NE 8 10 1020.5 - 0.0 - - - - - - -
06/10:30am 20.5 SW 2 4 1020.5 - 0.0 - - - - - - -
06/10:00am 19.8 WNW 4 5 1020.5 - 0.0 - - - - - - -
06/09:30am 19.2 W 6 7 1020.5 - 0.0 - - - - - - -
06/09:00am 18.9 WNW 7 8 1020.4 - 1.0 - - - - - - -
06/08:30am 18.5 W 7 8 1020.4 - 1.0 - - - - - - -
06/08:00am 18.2 W 9 10 1020.3 - 1.0 - - - - - - -
06/07:30am 18.0 WNW 8 10 1020.1 - 1.0 - - - - - - -
06/07:00am 18.0 W 8 9 1019.9 - 1.0 - - - - - - -
06/06:30am 18.3 W 6 7 1019.6 - 1.0 - - - - - - -
06/06:00am 18.8 W 5 7 1019.4 - 1.0 - - - - - - -
06/05:30am 18.8 NW 3 4 1019.4 - 1.0 - - - - - - -
06/05:00am 19.3 NNE 6 9 1019.5 - 1.0 - - - - - - -
06/04:30am 19.8 ESE 7 9 1019.4 - 1.0 - - - - - - -
06/04:00am 19.9 ESE 7 10 1019.4 - 1.0 - - - - - - -
06/03:30am 19.7 ESE 9 11 1019.7 - 1.0 - - - - - - -
06/03:00am 19.6 ESE 13 16 1019.9 - 1.0 - - - - - - -
06/02:30am 20.2 ESE 10 16 1020.2 - 1.0 - - - - - - -
06/02:00am 19.9 ESE 7 9 1020.4 - 1.0 - - - - - - -
06/01:30am 19.8 ESE 10 12 1020.8 - 1.0 - - - - - - -
06/01:00am 19.7 ESE 10 12 1020.9 - 1.0 - - - - - - -
06/12:30am 19.0 S 4 7 1021.2 - 1.0 - - - - - - -
06/12:00am 19.5 S 6 10 1021.4 - 1.0 - - - - - - -
 
Date/Time
EDT
Temp

°C
Wind Pressure Rain
since 9am
mm
Weather Cloud Vis
km
Sea
Height
m
Swell
Dir
 
Speed
knots
Gust
knots
hPa Trend Height
m
Period
s
Dir
05/11:30pm 18.8 SSW 8 10 1021.4 - 1.0 - - - - - - -
05/11:00pm 18.7 S 3 6 1021.7 - 1.0 - - - - - - -
05/10:30pm 19.8 E 5 8 1021.8 - 0.0 - - - - - - -
05/10:00pm 20.7 SE 10 13 1022.0 - 0.0 - - - - - - -
05/09:30pm 20.7 SSE 11 14 1021.7 - 0.0 - - - - - - -
05/09:00pm 20.8 SSE 11 12 1021.4 - 0.0 - - - - - - -
05/08:30pm 20.8 SSE 11 13 1021.2 - 0.0 - - - - - - -
05/08:00pm 20.9 SSE 10 12 1020.9 - 0.0 - - - - - - -
05/07:30pm 21.6 SSE 11 13 1020.7 - 0.0 - - - - - - -
05/07:00pm 22.0 SSE 10 13 1020.5 - 0.0 - - - - - - -
05/06:30pm 22.1 SSE 11 12 1020.4 - 0.0 - - - - - - -
05/06:00pm 21.8 SSE 12 14 1020.4 - 0.0 - - - - - - -
05/05:30pm 21.9 SSE 12 15 1020.5 - 0.0 - - - - - - -
05/05:00pm 22.1 SSE 13 15 1020.7 - 0.0 - - - - - - -
05/04:30pm 22.9 SSE 11 13 1020.6 - 0.0 - - - - - - -
05/04:00pm 22.9 SSE 11 13 1020.9 - 0.0 - - - - - - -
05/03:30pm 23.2 SSE 11 13 1020.9 - 0.0 - - - - - - -
05/03:00pm 23.0 SSE 13 16 1021.0 - 0.0 - - - - - - -
05/02:30pm 23.1 SSE 13 15 1021.1 - 0.0 - - - - - - -
05/02:00pm 23.4 SSE 12 15 1021.3 - 0.0 - - - - - - -
05/01:30pm 24.0 SSE 12 14 1021.4 - 0.0 - - - - - - -
05/01:00pm 23.1 S 12 14 1021.6 - 0.0 - - - - - - -
05/12:30pm 22.0 S 12 15 1021.7 - 0.0 - - - - - - -
05/12:00pm 21.2 S 16 19 1021.8 - 0.0 - - - - - - -
05/11:30am 21.3 S 15 18 1021.8 - 0.0 - - - - - - -
05/11:00am 20.7 S 16 20 1021.9 - 0.0 - - - - - - -
05/10:30am 20.7 SSW 19 21 1021.4 - 0.0 - - - - - - -
05/10:00am 20.3 S 16 19 1021.3 - 0.0 - - - - - - -
05/09:30am 20.2 SSW 15 19 1021.1 - 0.0 - - - - - - -
05/09:00am 20.0 SW 15 18 1020.9 - 0.0 - - - - - - -
05/08:30am 19.8 SSW 15 18 1020.7 - 0.0 - - - - - - -
05/08:00am 19.5 SSW 17 20 1020.6 - 0.0 - - - - - - -
05/07:30am 19.4 SSW 16 18 1020.3 - 0.0 - - - - - - -
05/07:00am 19.2 SW 15 18 1020.0 - 0.0 - - - - - - -
05/06:30am 19.4 SSW 15 18 1019.7 - 0.0 - - - - - - -
05/06:00am 19.7 S 17 20 1019.3 - 0.0 - - - - - - -
05/05:30am 18.8 SSW 16 19 1018.9 - 0.0 - - - - - - -
05/05:00am 18.9 SW 15 17 1018.8 - 0.0 - - - - - - -
05/04:30am 19.4 SSW 18 20 1018.5 - 0.0 - - - - - - -
05/04:00am 19.8 S 17 19 1018.5 - 0.0 - - - - - - -
05/03:30am 19.6 S 17 19 1018.6 - 0.0 - - - - - - -
05/03:00am 19.6 S 16 19 1018.7 - 0.0 - - - - - - -
05/02:30am 19.6 S 17 20 1018.9 - 0.0 - - - - - - -
05/02:00am 19.3 S 15 17 1019.2 - 0.0 - - - - - - -
05/01:30am 19.3 S 15 18 1019.3 - 0.0 - - - - - - -
05/01:00am 19.4 S 16 20 1019.5 - 0.0 - - - - - - -
05/12:30am 19.4 S 17 20 1019.5 - 0.0 - - - - - - -
05/12:00am 19.5 S 16 18 1019.6 - 0.0 - - - - - - -
 
Date/Time
EDT
Temp

°C
Wind Pressure Rain
since 9am
mm
Weather Cloud Vis
km
Sea
Height
m
Swell
Dir
 
Speed
knots
Gust
knots
hPa Trend Height
m
Period
s
Dir
04/11:30pm 19.5 S 18 21 1019.6 - 0.0 - - - - - - -
04/11:00pm 19.5 S 18 22 1019.7 - 0.0 - - - - - - -
04/10:30pm 19.6 S 18 21 1019.9 - 0.0 - - - - - - -
04/10:00pm 19.7 S 19 23 1019.7 - 0.0 - - - - - - -
04/09:30pm 19.8 S 19 23 1019.5 - 0.0 - - - - - - -
04/09:00pm 20.0 S 18 23 1019.3 - 0.0 - - - - - - -
04/08:30pm 19.7 S 22 25 1019.1 - 0.0 - - - - - - -
04/08:00pm 19.5 SSW 21 24 1018.7 - 0.0 - - - - - - -
04/07:30pm 19.7 S 22 26 1018.4 - 0.0 - - - - - - -
04/07:00pm 20.2 S 23 27 1018.1 - 0.0 - - - - - - -
04/06:30pm 20.1 S 24 27 1017.6 - 0.0 - - - - - - -
04/06:00pm 20.3 S 25 29 1017.3 - 0.0 - - - - - - -
04/05:30pm 20.6 S 25 28 1017.2 - 0.0 - - - - - - -
04/05:00pm 21.1 S 23 26 1017.3 - 0.0 - - - - - - -
04/04:30pm 20.9 S 22 25 1017.2 - 0.0 - - - - - - -
04/04:00pm 21.3 S 23 27 1017.3 - 0.0 - - - - - - -
04/03:30pm 21.4 S 23 27 1017.2 - 0.0 - - - - - - -
04/03:00pm 21.2 S 23 28 1017.2 - 0.0 - - - - - - -
04/02:30pm 21.5 S 22 27 1017.1 - 0.0 - - - - - - -
04/02:00pm 20.9 S 21 24 1017.2 - 0.0 - - - - - - -
04/01:30pm 21.3 S 20 23 1017.2 - 0.0 - - - - - - -
04/01:00pm 21.5 SSW 21 25 1017.2 - 0.0 - - - - - - -
04/12:30pm 21.5 SSW 20 24 1017.2 - 0.0 - - - - - - -
04/12:00pm 21.2 SSW 18 21 1017.1 - 0.0 - - - - - - -
04/11:30am 20.6 SSW 17 19 1017.0 - 0.0 - - - - - - -
04/11:00am 20.2 SW 17 20 1016.8 - 0.0 - - - - - - -
04/10:30am 19.6 SW 18 21 1016.6 - 0.0 - - - - - - -
04/10:00am 19.3 SSW 18 21 1016.3 - 0.0 - - - - - - -
04/09:30am 19.0 SSW 20 24 1016.2 - 0.0 - - - - - - -
04/09:00am 19.1 SW 19 22 1016.2 - 0.4 - - - - - - -
04/08:30am 18.7 SW 21 24 1016.0 - 0.4 - - - - - - -
04/08:00am 18.8 SW 20 24 1015.7 - 0.4 - - - - - - -
04/07:30am 18.4 SW 21 25 1015.3 - 0.4 - - - - - - -
04/07:00am 18.4 SW 22 26 1015.0 - 0.4 - - - - - - -
04/06:30am 18.1 SW 26 30 1014.2 - 0.4 - - - - - - -
04/06:00am 18.3 SW 26 30 1013.5 - 0.4 - - - - - - -
04/05:30am 18.3 SW 22 26 1013.1 - 0.4 - - - - - - -
04/05:16am 18.2 WSW 17 27 1012.9 - 0.4 - - - - - - -
04/05:00am 17.9 WSW 20 24 1012.8 - 0.4 - - - - - - -
04/04:30am 18.0 WSW 22 26 1012.2 - 0.4 - - - - - - -
04/04:00am 18.1 WSW 22 26 1011.9 - 0.4 - - - - - - -
04/03:30am 18.1 WSW 23 29 1011.6 - 0.4 - - - - - - -
04/03:00am 17.9 WSW 24 28 1011.6 - 0.4 - - - - - - -

Other Formats:

Comma delimited format used in spreadsheet applications
http://www.bom.gov.au/fwo/IDN60701/IDN60701.94934.axf

JavaScript Object Notation format (JSON) in row-major order
http://www.bom.gov.au/fwo/IDN60701/IDN60701.94934.json